Time;durP1;ratioP1;P1;durP2;ratioP2;P2;SDS_P1;SDS_P2;PMS_P1;PMS_P2;Temp;Humidity;BMP_temperature;BMP_pressure;BME280_temperature;BME280_humidity;BME280_pressure;Samples;Min_cycle;Max_cycle;Signal;HPM_P1;HPM_P2
2023/05/13 00:01:47;;;;;;;6.93;4.60;;;16.60;59.40;;;;;;5072726;28;20809;-43
2023/05/13 00:04:14;;;;;;;6.57;4.73;;;16.40;59.20;;;;;;5072521;28;20438;-43
2023/05/13 00:06:40;;;;;;;8.73;4.50;;;16.60;59.50;;;;;;5072253;28;20450;-41
2023/05/13 00:09:08;;;;;;;9.20;5.80;;;16.10;59.10;;;;;;5071814;28;20464;-42
2023/05/13 00:11:35;;;;;;;14.03;8.07;;;16.40;59.50;;;;;;5072641;28;20430;-43
2023/05/13 00:14:01;;;;;;;7.53;4.67;;;16.40;59.50;;;;;;5072336;28;20787;-43
2023/05/13 00:16:28;;;;;;;10.67;4.70;;;16.40;59.50;;;;;;5072172;28;20436;-42
2023/05/13 00:18:55;;;;;;;5.63;4.93;;;16.30;59.60;;;;;;5072016;28;21137;-42
2023/05/13 00:21:22;;;;;;;7.63;4.87;;;16.00;59.40;;;;;;5072349;28;20426;-43
2023/05/13 00:23:49;;;;;;;9.47;5.00;;;16.10;59.50;;;;;;5072723;28;20971;-43
2023/05/13 00:26:17;;;;;;;9.80;4.80;;;16.50;59.90;;;;;;5073289;28;20445;-42
2023/05/13 00:28:47;;;;;;;7.90;5.40;;;16.00;59.50;;;;;;5072122;28;20455;-42
2023/05/13 00:31:13;;;;;;;9.93;6.33;;;16.10;59.70;;;;;;5072797;28;20441;-43
2023/05/13 00:33:40;;;;;;;6.37;4.80;;;16.40;60.00;;;;;;5054524;28;20453;-43
2023/05/13 00:36:08;;;;;;;7.20;5.07;;;16.40;60.10;;;;;;5072286;28;20779;-43
2023/05/13 00:38:35;;;;;;;6.90;5.20;;;16.20;60.00;;;;;;5072171;28;20482;-44
2023/05/13 00:41:03;;;;;;;9.97;5.37;;;16.10;60.00;;;;;;5072961;28;20779;-43
2023/05/13 00:43:31;;;;;;;5.90;4.70;;;16.30;60.20;;;;;;5055009;28;20452;-42
2023/05/13 00:45:59;;;;;;;6.97;4.63;;;16.20;60.20;;;;;;5072490;28;20457;-42
2023/05/13 00:48:26;;;;;;;7.07;4.80;;;16.10;60.20;;;;;;5054106;28;20537;-43
2023/05/13 00:50:52;;;;;;;6.40;5.43;;;15.70;59.80;;;;;;5054680;28;20441;-43
2023/05/13 00:53:19;;;;;;;11.40;5.70;;;16.10;60.30;;;;;;5072143;28;20434;-42
2023/05/13 00:55:46;;;;;;;7.67;5.33;;;16.30;60.60;;;;;;5056210;28;20457;-43
2023/05/13 00:58:13;;;;;;;11.53;5.30;;;16.20;60.40;;;;;;5057795;28;20477;-42
2023/05/13 01:00:51;;;;;;;9.17;4.60;;;15.80;60.00;;;;;;5076386;28;20434;-42
2023/05/13 01:03:23;;;;;;;9.00;4.80;;;16.20;60.60;;;;;;5076662;28;20435;-42
2023/05/13 01:05:58;;;;;;;5.73;4.70;;;15.80;60.00;;;;;;5075680;28;20446;-43
2023/05/13 01:08:43;;;;;;;8.67;5.17;;;16.20;60.70;;;;;;5057950;28;20528;-42
2023/05/13 01:11:14;;;;;;;6.00;4.47;;;16.10;60.70;;;;;;5075904;28;20958;-42
2023/05/13 01:13:44;;;;;;;7.07;5.20;;;16.10;60.90;;;;;;5058304;28;20454;-43
2023/05/13 01:16:17;;;;;;;9.73;5.00;;;16.10;61.20;;;;;;5075975;28;20454;-43
2023/05/13 01:18:48;;;;;;;11.70;5.00;;;16.30;61.50;;;;;;5057374;28;20481;-41
2023/05/13 01:21:15;;;;;;;10.83;5.57;;;16.00;61.30;;;;;;5057337;28;20449;-42
2023/05/13 01:23:43;;;;;;;9.37;5.33;;;16.00;61.20;;;;;;5057762;28;20454;-41
2023/05/13 01:26:10;;;;;;;10.13;5.50;;;16.10;61.50;;;;;;5057875;28;20465;-40
2023/05/13 01:28:36;;;;;;;6.63;4.57;;;16.10;61.50;;;;;;5057088;28;20454;-42
2023/05/13 01:31:04;;;;;;;9.00;4.93;;;15.80;61.10;;;;;;5057341;28;20450;-42
2023/05/13 01:33:32;;;;;;;6.83;5.00;;;15.60;61.00;;;;;;5057433;28;20450;-43
2023/05/13 01:35:59;;;;;;;8.50;4.67;;;15.90;61.50;;;;;;5057183;28;20522;-42
2023/05/13 01:38:27;;;;;;;7.90;5.57;;;15.90;61.60;;;;;;5075033;28;20469;-42
2023/05/13 01:40:59;;;;;;;7.47;4.83;;;16.10;61.90;;;;;;5057677;28;20457;-41
2023/05/13 01:43:27;;;;;;;8.30;5.47;;;15.90;61.90;;;;;;5057285;28;20468;-42
2023/05/13 01:45:54;;;;;;;7.50;5.20;;;16.30;62.50;;;;;;5058157;28;20484;-43
2023/05/13 01:48:22;;;;;;;5.37;4.87;;;15.70;61.90;;;;;;5057435;28;20450;-42
2023/05/13 01:50:49;;;;;;;7.57;4.77;;;15.50;61.90;;;;;;5057581;28;20458;-43
2023/05/13 01:53:16;;;;;;;5.27;4.70;;;15.80;62.40;;;;;;5057536;28;20451;-42
2023/05/13 01:55:42;;;;;;;8.87;4.93;;;15.70;62.50;;;;;;5057689;28;20564;-42
2023/05/13 01:58:10;;;;;;;8.47;5.67;;;15.30;62.30;;;;;;5057466;28;20481;-42
2023/05/13 02:00:37;;;;;;;10.40;5.20;;;15.60;62.50;;;;;;5057417;28;20450;-44
2023/05/13 02:03:04;;;;;;;5.83;5.20;;;15.70;62.90;;;;;;5057555;28;20569;-43
2023/05/13 02:05:32;;;;;;;9.43;5.20;;;15.60;62.90;;;;;;5075142;28;20486;-43
2023/05/13 02:08:01;;;;;;;7.30;5.93;;;15.50;62.80;;;;;;5056307;28;20453;-41
2023/05/13 02:10:28;;;;;;;9.40;5.67;;;15.10;62.50;;;;;;5056862;28;20446;-43
2023/05/13 02:12:55;;;;;;;7.83;5.40;;;15.80;63.50;;;;;;5056600;28;20456;-43
2023/05/13 02:15:23;;;;;;;8.07;5.30;;;15.50;63.30;;;;;;5056341;28;20461;-42
2023/05/13 02:17:50;;;;;;;10.17;5.17;;;15.60;63.70;;;;;;5056434;28;20470;-42
2023/05/13 02:20:16;;;;;;;6.37;5.27;;;14.90;63.10;;;;;;5056109;28;20889;-43
2023/05/13 02:22:43;;;;;;;9.80;5.27;;;15.30;63.50;;;;;;5056462;28;20468;-43
2023/05/13 02:25:10;;;;;;;8.13;5.47;;;15.30;63.80;;;;;;5056222;28;20472;-42
2023/05/13 02:27:36;;;;;;;8.30;5.60;;;15.50;64.20;;;;;;5074066;28;20438;-43
2023/05/13 02:30:05;;;;;;;7.80;6.00;;;15.60;64.40;;;;;;5073622;28;20430;-44
2023/05/13 02:32:33;;;;;;;13.80;6.30;;;15.30;64.10;;;;;;5055942;28;20519;-43
2023/05/13 02:35:00;;;;;;;8.97;6.10;;;14.80;63.70;;;;;;5055961;28;20981;-42
2023/05/13 02:37:26;;;;;;;9.40;6.10;;;15.20;64.00;;;;;;5055820;28;20488;-43
2023/05/13 02:40:00;;;;;;;6.87;5.83;;;15.10;63.90;;;;;;5055764;28;20448;-43
2023/05/13 02:42:27;;;;;;;10.67;5.40;;;15.30;64.10;;;;;;5056098;28;20503;-42
2023/05/13 02:44:54;;;;;;;10.27;5.23;;;15.20;64.10;;;;;;5055955;28;20994;-41
2023/05/13 02:47:21;;;;;;;8.37;4.70;;;14.70;63.50;;;;;;5055916;28;20461;-41
2023/05/13 02:49:49;;;;;;;8.20;5.00;;;15.40;64.20;;;;;;5055299;28;20445;-41
2023/05/13 02:52:16;;;;;;;13.23;5.60;;;15.30;64.10;;;;;;5057023;28;20474;-43
2023/05/13 02:54:42;;;;;;;14.33;6.00;;;15.50;64.30;;;;;;5073625;28;20449;-43
2023/05/13 02:57:09;;;;;;;5.23;4.70;;;15.20;63.80;;;;;;5055464;28;20481;-43
2023/05/13 02:59:36;;;;;;;7.37;5.20;;;15.30;63.90;;;;;;5055104;28;20485;-43
2023/05/13 03:02:02;;;;;;;7.60;5.13;;;15.40;63.90;;;;;;5055491;28;20511;-43
2023/05/13 03:04:29;;;;;;;9.57;4.97;;;15.20;63.70;;;;;;5055405;28;20466;-42
2023/05/13 03:06:57;;;;;;;10.43;5.80;;;15.10;63.60;;;;;;5055725;28;21011;-43
2023/05/13 03:09:24;;;;;;;7.03;5.80;;;14.90;63.30;;;;;;5073559;28;20837;-43
2023/05/13 03:11:51;;;;;;;6.60;5.40;;;15.10;63.60;;;;;;5073745;28;20522;-43
2023/05/13 03:14:18;;;;;;;8.50;5.60;;;15.30;63.90;;;;;;5055269;28;20476;-41
2023/05/13 03:16:44;;;;;;;7.77;5.60;;;15.50;64.10;;;;;;5056112;28;20453;-42
2023/05/13 03:19:13;;;;;;;6.67;5.20;;;15.70;64.20;;;;;;5054320;28;20473;-43
2023/05/13 03:21:40;;;;;;;8.80;6.00;;;15.40;63.90;;;;;;5055551;28;20456;-42
2023/05/13 03:24:11;;;;;;;7.67;6.10;;;15.20;63.70;;;;;;5055111;28;20449;-43
2023/05/13 03:26:37;;;;;;;7.57;5.80;;;15.20;63.70;;;;;;5054678;28;20508;-42
2023/05/13 03:29:04;;;;;;;9.40;5.20;;;15.00;63.70;;;;;;5055193;28;20441;-42
2023/05/13 03:31:31;;;;;;;7.63;5.20;;;15.40;64.30;;;;;;5055258;28;20451;-43
2023/05/13 03:33:59;;;;;;;12.97;6.33;;;15.30;64.20;;;;;;5055267;28;20830;-44
2023/05/13 03:36:26;;;;;;;10.83;5.53;;;15.00;63.90;;;;;;5055496;28;20441;-43
2023/05/13 03:38:53;;;;;;;12.93;4.97;;;15.00;63.90;;;;;;5072368;28;20469;-42
2023/05/13 03:41:21;;;;;;;7.80;5.00;;;14.90;63.90;;;;;;5054421;28;20460;-44
2023/05/13 03:43:48;;;;;;;7.90;5.50;;;14.70;63.70;;;;;;5054719;28;20902;-43
2023/05/13 03:46:16;;;;;;;8.77;5.50;;;15.10;64.40;;;;;;5072290;28;20504;-43
2023/05/13 03:48:42;;;;;;;7.70;4.67;;;14.90;64.20;;;;;;5072134;28;20426;-43
2023/05/13 03:51:09;;;;;;;9.20;5.43;;;14.90;64.30;;;;;;5054583;28;20438;-42
2023/05/13 03:53:36;;;;;;;7.80;5.40;;;15.00;64.50;;;;;;5054630;28;20468;-42
2023/05/13 03:56:03;;;;;;;9.30;5.90;;;14.30;63.70;;;;;;5054118;28;20474;-42
2023/05/13 03:58:31;;;;;;;7.03;5.13;;;14.80;65.10;;;;;;5054016;28;20849;-42
2023/05/13 04:00:58;;;;;;;9.27;5.83;;;14.90;64.30;;;;;;5054589;28;20472;-42
2023/05/13 04:03:24;;;;;;;7.20;5.07;;;15.00;64.50;;;;;;5072409;28;20948;-43
2023/05/13 04:05:51;;;;;;;7.37;5.33;;;14.40;63.80;;;;;;5055440;28;20457;-43
2023/05/13 04:08:18;;;;;;;7.30;5.60;;;14.90;64.50;;;;;;5072162;28;20433;-43
2023/05/13 04:10:45;;;;;;;15.43;5.67;;;14.50;63.90;;;;;;5072506;28;20430;-43
2023/05/13 04:13:11;;;;;;;8.33;5.57;;;15.30;64.60;;;;;;5054547;28;20444;-42
2023/05/13 04:15:39;;;;;;;7.70;5.00;;;15.50;64.90;;;;;;5072440;28;20453;-43
2023/05/13 04:18:06;;;;;;;14.83;6.20;;;14.90;64.30;;;;;;5072341;28;20434;-43
2023/05/13 04:20:34;;;;;;;9.03;5.67;;;15.00;64.30;;;;;;5054859;28;20796;-41
2023/05/13 04:23:02;;;;;;;7.67;5.37;;;15.10;64.20;;;;;;5073207;28;20928;-43
2023/05/13 04:25:29;;;;;;;7.73;4.90;;;15.60;64.50;;;;;;5072354;28;20446;-43
2023/05/13 04:27:56;;;;;;;6.70;4.90;;;15.40;63.80;;;;;;5054874;28;20537;-43
2023/05/13 04:30:28;;;;;;;11.50;5.60;;;15.20;63.20;;;;;;5053631;28;20506;-41
2023/05/13 04:32:56;;;;;;;6.47;5.10;;;15.60;63.20;;;;;;5072209;28;20432;-43
2023/05/13 04:35:23;;;;;;;12.63;5.00;;;15.60;62.70;;;;;;5071848;28;20449;-44
2023/05/13 04:37:54;;;;;;;13.07;5.37;;;15.60;62.50;;;;;;5054137;28;20511;-43
2023/05/13 04:40:21;;;;;;;8.47;5.07;;;15.80;62.60;;;;;;5053541;28;20569;-43
2023/05/13 04:42:53;;;;;;;7.83;5.03;;;15.70;62.00;;;;;;5054092;28;20533;-44
2023/05/13 04:45:22;;;;;;;7.07;5.60;;;16.00;62.10;;;;;;5053950;28;20573;-43
2023/05/13 04:47:49;;;;;;;9.03;6.07;;;16.00;62.10;;;;;;5054158;28;20450;-43
2023/05/13 04:50:17;;;;;;;9.80;5.23;;;15.80;61.60;;;;;;5053770;28;20536;-43
2023/05/13 04:52:46;;;;;;;5.70;5.07;;;15.90;61.70;;;;;;5054356;28;20832;-43
2023/05/13 04:55:12;;;;;;;10.83;5.43;;;16.20;61.50;;;;;;5054048;28;20489;-43
2023/05/13 04:57:39;;;;;;;7.83;5.60;;;16.30;61.40;;;;;;5072252;28;20533;-42
2023/05/13 05:00:08;;;;;;;7.33;5.30;;;16.60;61.40;;;;;;5053981;28;20479;-42
2023/05/13 05:02:36;;;;;;;11.57;5.80;;;16.50;60.70;;;;;;5054017;28;20453;-43
2023/05/13 05:05:02;;;;;;;7.67;4.57;;;16.10;59.80;;;;;;5053910;28;20468;-41
2023/05/13 05:07:31;;;;;;;6.30;4.83;;;16.70;60.20;;;;;;5053781;28;20975;-42
2023/05/13 05:09:57;;;;;;;9.90;4.93;;;16.70;59.90;;;;;;5071434;28;20434;-42
2023/05/13 05:12:25;;;;;;;7.17;5.03;;;16.30;59.50;;;;;;5054172;28;20482;-43
2023/05/13 05:14:52;;;;;;;5.93;4.80;;;17.10;59.90;;;;;;5053815;28;20537;-43
2023/05/13 05:17:18;;;;;;;8.90;5.40;;;17.10;59.40;;;;;;5053710;28;20447;-43
2023/05/13 05:19:45;;;;;;;7.10;5.13;;;17.00;58.90;;;;;;5053152;28;20490;-42
2023/05/13 05:22:12;;;;;;;6.57;4.60;;;17.20;58.50;;;;;;5071611;28;21086;-43
2023/05/13 05:24:40;;;;;;;9.20;5.03;;;17.30;58.30;;;;;;5072595;28;20467;-43
2023/05/13 05:27:06;;;;;;;5.83;4.77;;;17.30;58.10;;;;;;5071767;28;20439;-43
2023/05/13 05:29:34;;;;;;;7.20;4.80;;;17.70;57.90;;;;;;5053242;28;20454;-42
2023/05/13 05:32:01;;;;;;;8.57;5.30;;;17.50;57.40;;;;;;5053398;28;20565;-43
2023/05/13 05:34:28;;;;;;;5.40;4.67;;;18.10;57.60;;;;;;5071406;28;20544;-43
2023/05/13 05:36:55;;;;;;;8.67;4.57;;;17.70;56.90;;;;;;5053655;28;20483;-43
2023/05/13 05:39:22;;;;;;;4.43;3.83;;;17.80;56.10;;;;;;5053231;28;20841;-44
2023/05/13 05:41:50;;;;;;;5.90;4.60;;;17.50;55.80;;;;;;5053650;28;20954;-44
2023/05/13 05:44:17;;;;;;;12.30;4.77;;;17.80;55.80;;;;;;5057308;28;20502;-43
2023/05/13 05:46:44;;;;;;;7.10;4.60;;;18.00;55.60;;;;;;5057732;28;20965;-42
2023/05/13 05:49:12;;;;;;;5.77;4.97;;;17.70;55.30;;;;;;5074876;28;20450;-42
2023/05/13 05:51:39;;;;;;;7.37;3.90;;;18.00;55.20;;;;;;5057024;28;20435;-44
2023/05/13 05:54:07;;;;;;;9.73;4.50;;;18.20;55.20;;;;;;5057018;28;20461;-42
2023/05/13 05:56:34;;;;;;;8.80;4.90;;;18.40;54.90;;;;;;5058241;28;20452;-42
2023/05/13 05:59:02;;;;;;;6.87;4.70;;;18.30;54.40;;;;;;5075072;28;20543;-43
2023/05/13 06:01:32;;;;;;;8.13;4.20;;;18.60;54.30;;;;;;5057715;28;20511;-42
2023/05/13 06:03:59;;;;;;;6.33;4.07;;;18.40;53.60;;;;;;5075932;28;20433;-42
2023/05/13 06:06:25;;;;;;;10.20;4.90;;;18.80;53.70;;;;;;5056874;28;20466;-43
2023/05/13 06:08:52;;;;;;;9.57;4.73;;;18.90;53.70;;;;;;5056370;28;20532;-43
2023/05/13 06:11:19;;;;;;;5.27;3.57;;;18.40;53.10;;;;;;5057454;28;20799;-43
2023/05/13 06:13:46;;;;;;;7.73;4.57;;;18.60;53.10;;;;;;5056897;28;20453;-43
2023/05/13 06:16:14;;;;;;;9.10;3.97;;;19.10;53.50;;;;;;5056346;28;20466;-43
2023/05/13 06:18:41;;;;;;;6.83;4.00;;;18.50;52.60;;;;;;5074917;28;20448;-43
2023/05/13 06:21:07;;;;;;;7.83;4.20;;;19.00;52.70;;;;;;5057176;28;20471;-43
2023/05/13 06:23:34;;;;;;;4.00;3.33;;;19.40;53.00;;;;;;5074865;28;20479;-43
2023/05/13 06:26:01;;;;;;;5.17;4.00;;;19.20;52.70;;;;;;5056649;28;20468;-43
2023/05/13 06:28:27;;;;;;;5.90;4.33;;;19.20;51.90;;;;;;5074363;28;20436;-43
2023/05/13 06:30:54;;;;;;;7.50;4.40;;;19.10;51.80;;;;;;5074560;28;20421;-44
2023/05/13 06:33:22;;;;;;;8.60;5.73;;;19.50;52.30;;;;;;5074831;28;20912;-43
2023/05/13 06:35:49;;;;;;;7.37;4.90;;;19.40;51.80;;;;;;5074634;28;20452;-43
2023/05/13 06:38:17;;;;;;;6.63;4.17;;;19.60;51.70;;;;;;5057336;28;20556;-43
2023/05/13 06:40:45;;;;;;;5.70;4.17;;;19.30;51.60;;;;;;5056989;28;20478;-43
2023/05/13 06:43:15;;;;;;;6.33;3.73;;;19.30;52.10;;;;;;5057153;28;20474;-43
2023/05/13 06:45:46;;;;;;;8.80;5.20;;;19.40;52.30;;;;;;5057588;28;20488;-43
2023/05/13 06:48:13;;;;;;;11.80;4.23;;;18.90;51.70;;;;;;5056433;28;20545;-42
2023/05/13 06:50:41;;;;;;;6.20;3.67;;;19.20;52.30;;;;;;5056893;28;21026;-44
2023/05/13 06:53:10;;;;;;;6.60;3.80;;;18.80;51.90;;;;;;5075083;28;20799;-44
2023/05/13 06:55:40;;;;;;;8.80;4.90;;;18.90;52.40;;;;;;5074862;28;20454;-44
2023/05/13 06:58:07;;;;;;;7.63;4.13;;;19.40;52.90;;;;;;5075230;28;20436;-42
2023/05/13 07:00:36;;;;;;;6.63;3.80;;;19.00;52.40;;;;;;5074428;28;20493;-43
2023/05/13 07:03:03;;;;;;;4.47;3.50;;;18.90;52.20;;;;;;5075496;28;20436;-43
2023/05/13 07:05:30;;;;;;;9.43;4.20;;;18.70;52.20;;;;;;5074498;28;20873;-42
2023/05/13 07:07:58;;;;;;;9.50;3.47;;;18.80;51.90;;;;;;5073575;28;20925;-43
2023/05/13 07:10:24;;;;;;;4.57;4.00;;;18.60;51.60;;;;;;5073236;28;20430;-42
2023/05/13 07:12:51;;;;;;;7.30;3.67;;;18.40;51.50;;;;;;5073949;28;20440;-43
2023/05/13 07:15:18;;;;;;;9.97;3.93;;;18.90;51.70;;;;;;5073399;28;20836;-43
2023/05/13 07:17:44;;;;;;;6.27;3.60;;;18.70;51.00;;;;;;5073739;28;20428;-42
2023/05/13 07:20:11;;;;;;;7.27;3.70;;;18.60;50.90;;;;;;5072887;28;20481;-42
2023/05/13 07:22:38;;;;;;;6.87;3.90;;;18.90;51.00;;;;;;5073666;28;20437;-43
2023/05/13 07:25:07;;;;;;;5.33;3.80;;;18.50;50.10;;;;;;5073656;28;20792;-43
2023/05/13 07:27:33;;;;;;;4.83;3.47;;;19.20;50.80;;;;;;5073030;28;20953;-44
2023/05/13 07:30:01;;;;;;;8.07;3.80;;;18.70;49.80;;;;;;5072814;28;20434;-44
2023/05/13 07:32:29;;;;;;;4.50;3.20;;;19.20;50.40;;;;;;5073262;28;20429;-44
2023/05/13 07:34:55;;;;;;;7.03;3.77;;;19.20;50.30;;;;;;5056378;28;20484;-44
2023/05/13 07:37:22;;;;;;;4.53;3.60;;;18.70;49.60;;;;;;5074190;28;20436;-44
2023/05/13 07:39:49;;;;;;;4.90;3.30;;;19.10;49.70;;;;;;5074107;28;20702;-43
2023/05/13 07:42:18;;;;;;;6.60;3.40;;;19.50;49.00;;;;;;5075366;28;20428;-43
2023/05/13 07:44:44;;;;;;;5.73;2.93;;;18.80;48.40;;;;;;5073815;28;20484;-43
2023/05/13 07:47:11;;;;;;;6.27;3.00;;;19.30;47.80;;;;;;5076097;28;20434;-43
2023/05/13 07:49:37;;;;;;;9.33;3.27;;;18.90;47.30;;;;;;5073577;28;20440;-42
2023/05/13 07:52:04;;;;;;;3.83;2.93;;;18.70;46.70;;;;;;5073681;28;20804;-42
2023/05/13 07:54:31;;;;;;;4.13;2.90;;;19.30;47.40;;;;;;5072916;28;20458;-42
2023/05/13 07:56:58;;;;;;;5.60;3.00;;;19.10;47.00;;;;;;5074534;28;20433;-43
2023/05/13 07:59:26;;;;;;;8.27;3.90;;;18.90;46.60;;;;;;5072151;28;20481;-42
2023/05/13 08:01:53;;;;;;;4.93;3.50;;;;;;;;;;5072361;28;20434;-44
2023/05/13 08:04:19;;;;;;;3.87;2.90;;;19.50;45.80;;;;;;5073007;28;20440;-42
2023/05/13 08:06:46;;;;;;;5.67;4.50;;;19.40;46.50;;;;;;5072935;28;20437;-43
2023/05/13 08:09:13;;;;;;;4.50;3.00;;;19.50;46.70;;;;;;5072745;28;20934;-42
2023/05/13 08:11:39;;;;;;;3.97;3.53;;;19.40;46.80;;;;;;5072469;28;20465;-44
2023/05/13 08:14:06;;;;;;;6.17;3.53;;;19.10;46.70;;;;;;5072674;28;20434;-43
2023/05/13 08:16:36;;;;;;;8.57;3.37;;;19.20;46.50;;;;;;5072303;28;20430;-43
2023/05/13 08:19:02;;;;;;;5.30;3.40;;;19.50;46.90;;;;;;5071983;28;20438;-44
2023/05/13 08:21:30;;;;;;;7.90;3.33;;;18.80;46.70;;;;;;5071814;28;20520;-44
2023/05/13 08:23:57;;;;;;;5.30;3.53;;;19.50;47.20;;;;;;5072318;28;20837;-44
2023/05/13 08:26:23;;;;;;;6.67;3.40;;;19.30;46.80;;;;;;5072045;28;20966;-43
2023/05/13 08:28:50;;;;;;;4.00;3.47;;;19.30;46.80;;;;;;5071755;28;20441;-43
2023/05/13 08:31:17;;;;;;;6.57;3.50;;;19.60;47.10;;;;;;5072184;28;20935;-44
2023/05/13 08:33:47;;;;;;;6.60;3.30;;;20.00;47.50;;;;;;5054595;28;20499;-43
2023/05/13 08:36:14;;;;;;;5.90;3.50;;;19.30;47.10;;;;;;5072241;28;20549;-42
2023/05/13 08:38:42;;;;;;;7.80;3.40;;;19.50;47.40;;;;;;5071416;28;20430;-44
2023/05/13 08:41:11;;;;;;;6.10;3.50;;;18.90;47.10;;;;;;5072192;28;20545;-44
2023/05/13 08:43:39;;;;;;;5.00;3.17;;;19.40;47.40;;;;;;5072118;28;20439;-43
2023/05/13 08:46:10;;;;;;;7.40;3.47;;;19.30;47.70;;;;;;5073058;28;20474;-44
2023/05/13 08:48:37;;;;;;;5.03;3.20;;;19.50;47.40;;;;;;5071558;28;20430;-42
2023/05/13 08:51:05;;;;;;;8.43;3.40;;;19.40;47.30;;;;;;5072550;28;20942;-43
2023/05/13 08:53:34;;;;;;;5.07;3.80;;;19.80;47.70;;;;;;5072544;28;20434;-43
2023/05/13 08:56:01;;;;;;;4.20;3.50;;;19.90;47.60;;;;;;5072302;28;20450;-44
2023/05/13 08:58:28;;;;;;;6.20;4.10;;;19.80;47.50;;;;;;5071872;28;20441;-43
2023/05/13 09:00:56;;;;;;;5.70;3.37;;;19.80;47.20;;;;;;5072543;28;20477;-44
2023/05/13 09:03:24;;;;;;;6.73;2.83;;;19.50;46.50;;;;;;5054792;28;20442;-41
2023/05/13 09:05:50;;;;;;;5.30;3.00;;;19.60;46.20;;;;;;5071947;28;20507;-43
2023/05/13 09:08:18;;;;;;;6.43;3.07;;;19.60;46.30;;;;;;5074086;28;20823;-42
2023/05/13 09:10:45;;;;;;;9.03;3.57;;;19.90;46.20;;;;;;5071791;28;20440;-43
2023/05/13 09:13:13;;;;;;;7.07;3.50;;;19.50;45.80;;;;;;5071554;28;20429;-42
2023/05/13 09:15:41;;;;;;;6.63;3.30;;;19.80;46.10;;;;;;5072011;28;20955;-43
2023/05/13 09:18:08;;;;;;;16.50;3.47;;;19.40;45.80;;;;;;5074086;28;20434;-43
2023/05/13 09:20:35;;;;;;;4.90;3.30;;;19.90;46.20;;;;;;5076697;28;20544;-43
2023/05/13 09:23:03;;;;;;;4.53;3.40;;;19.60;45.60;;;;;;5059032;28;20478;-44
2023/05/13 09:25:32;;;;;;;5.93;3.27;;;19.90;45.80;;;;;;5075741;28;20456;-44
2023/05/13 09:28:00;;;;;;;5.30;3.30;;;19.90;45.90;;;;;;5076523;28;20923;-42
2023/05/13 09:30:28;;;;;;;8.93;3.10;;;19.80;45.50;;;;;;5075580;28;20425;-44
2023/05/13 09:33:08;;;;;;;4.00;2.93;;;19.90;45.70;;;;;;5058471;28;20457;-43
2023/05/13 09:35:37;;;;;;;5.80;3.17;;;19.60;45.00;;;;;;5075901;28;20453;-43
2023/05/13 09:38:13;;;;;;;5.50;3.50;;;20.00;45.60;;;;;;5075999;28;20462;-44
2023/05/13 09:40:41;;;;;;;6.80;3.60;;;20.10;45.80;;;;;;5076320;28;20529;-42
2023/05/13 09:43:08;;;;;;;5.37;3.30;;;20.30;46.60;;;;;;5076054;28;20520;-44
2023/05/13 09:45:36;;;;;;;5.50;3.33;;;20.10;45.30;;;;;;5076367;28;20471;-43
2023/05/13 09:48:03;;;;;;;5.37;3.10;;;20.20;44.90;;;;;;5076093;28;20541;-43
2023/05/13 09:50:31;;;;;;;5.83;3.60;;;20.40;44.80;;;;;;5058958;28;20485;-42
2023/05/13 09:52:58;;;;;;;5.77;3.40;;;20.20;44.40;;;;;;5078616;28;20896;-43
2023/05/13 09:55:24;;;;;;;4.03;2.80;;;20.10;44.20;;;;;;5076756;28;20465;-44
2023/05/13 09:57:53;;;;;;;5.20;2.40;;;20.30;42.90;;;;;;5076176;28;20434;-44
2023/05/13 10:00:20;;;;;;;3.90;2.70;;;20.50;42.70;;;;;;5077851;28;20517;-43
2023/05/13 10:02:46;;;;;;;4.90;2.90;;;19.90;41.60;;;;;;5081194;28;20438;-42
2023/05/13 10:05:13;;;;;;;8.10;2.90;;;20.60;42.00;;;;;;5081485;28;20479;-43
2023/05/13 10:07:41;;;;;;;4.37;2.50;;;20.40;41.60;;;;;;5080789;28;20448;-43
2023/05/13 10:10:09;;;;;;;8.80;3.20;;;20.70;41.40;;;;;;5080721;28;20444;-41
2023/05/13 10:12:38;;;;;;;8.83;3.67;;;20.40;41.10;;;;;;5080431;28;20485;-42
2023/05/13 10:15:08;;;;;;;6.13;2.80;;;20.00;41.30;;;;;;5079740;28;20455;-45
2023/05/13 10:17:37;;;;;;;4.40;2.83;;;20.40;41.40;;;;;;5080859;28;20443;-44
2023/05/13 10:20:06;;;;;;;6.33;3.23;;;20.70;41.50;;;;;;5079707;28;20756;-43
2023/05/13 10:22:34;;;;;;;7.20;3.37;;;20.70;41.30;;;;;;5079765;28;20436;-43
2023/05/13 10:25:02;;;;;;;4.53;2.67;;;20.80;40.90;;;;;;5079685;28;20461;-43
2023/05/13 10:27:31;;;;;;;4.60;3.07;;;20.70;40.50;;;;;;5080098;28;20464;-44
2023/05/13 10:29:59;;;;;;;6.50;3.30;;;20.80;40.70;;;;;;5078614;28;20521;-43
2023/05/13 10:32:29;;;;;;;8.13;3.30;;;20.60;40.70;;;;;;5081022;28;20820;-42
2023/05/13 10:35:02;;;;;;;7.90;2.90;;;20.80;41.10;;;;;;5079395;28;20529;-43
2023/05/13 10:37:48;;;;;;;5.00;3.07;;;20.70;41.40;;;;;;5078656;28;20956;-43
2023/05/13 10:40:38;;;;;;;3.60;2.27;;;20.40;41.00;;;;;;5078576;28;20447;-43
2023/05/13 10:43:11;;;;;;;6.90;3.23;;;20.70;41.30;;;;;;5076647;28;20428;-44
2023/05/13 10:45:38;;;;;;;4.97;2.87;;;20.40;40.60;;;;;;5075920;28;20838;-44
2023/05/13 10:48:12;;;;;;;5.47;3.00;;;20.80;40.40;;;;;;5075128;28;20432;-43
2023/05/13 10:50:39;;;;;;;9.63;2.80;;;20.80;40.60;;;;;;5074870;28;20447;-44
2023/05/13 10:53:17;;;;;;;3.57;2.97;;;20.80;40.70;;;;;;5056987;28;20454;-44
2023/05/13 10:55:45;;;;;;;7.10;2.70;;;21.10;40.50;;;;;;5074838;28;20457;-44
2023/05/13 10:58:13;;;;;;;6.70;3.00;;;20.60;40.10;;;;;;5074525;28;20432;-43
2023/05/13 11:00:41;;;;;;;9.23;2.97;;;20.90;40.00;;;;;;5075674;28;20482;-41
2023/05/13 11:03:29;;;;;;;7.27;3.97;;;20.80;39.00;;;;;;5077522;28;20433;-43
2023/05/13 11:06:03;;;;;;;5.43;2.47;;;20.90;38.80;;;;;;5074474;28;20459;-44
2023/05/13 11:08:37;;;;;;;6.03;2.80;;;21.10;39.10;;;;;;5074134;28;20489;-44
2023/05/13 11:11:17;;;;;;;4.20;2.40;;;20.90;38.70;;;;;;5074292;28;20438;-42
2023/05/13 11:13:44;;;;;;;6.33;2.80;;;20.90;38.50;;;;;;5074057;28;20434;-44
2023/05/13 11:16:13;;;;;;;6.40;3.10;;;20.90;38.70;;;;;;5074159;28;20459;-41
2023/05/13 11:18:41;;;;;;;8.00;3.50;;;20.90;39.00;;;;;;5073652;28;20480;-43
2023/05/13 11:21:08;;;;;;;5.90;2.90;;;20.90;39.00;;;;;;5073791;28;20483;-43
2023/05/13 11:23:51;;;;;;;5.97;2.50;;;21.10;39.30;;;;;;5073840;28;20457;-43
2023/05/13 11:26:20;;;;;;;7.73;3.40;;;20.80;39.10;;;;;;5073676;28;20547;-44
2023/05/13 11:28:54;;;;;;;6.00;2.90;;;21.10;38.90;;;;;;5073438;28;20440;-44
2023/05/13 11:31:21;;;;;;;5.70;2.70;;;21.10;38.60;;;;;;5055978;28;20460;-43
2023/05/13 11:34:09;;;;;;;8.03;2.70;;;21.10;38.50;;;;;;5073658;28;20433;-44
2023/05/13 11:36:38;;;;;;;6.17;2.90;;;21.30;38.50;;;;;;5073882;28;20472;-44
2023/05/13 11:39:06;;;;;;;4.60;2.73;;;21.00;39.00;;;;;;5073367;28;20432;-45
2023/05/13 11:41:34;;;;;;;13.60;2.77;;;21.10;39.30;;;;;;5073103;28;20485;-44
2023/05/13 11:44:02;;;;;;;5.87;2.83;;;21.10;39.50;;;;;;5055412;28;20961;-43
2023/05/13 11:46:29;;;;;;;4.90;2.50;;;21.10;39.20;;;;;;5073637;28;21033;-43
2023/05/13 11:48:55;;;;;;;5.00;2.40;;;21.10;39.50;;;;;;5072708;28;20437;-42
2023/05/13 11:51:24;;;;;;;5.93;2.60;;;21.20;39.60;;;;;;5073047;28;20452;-44
2023/05/13 11:53:52;;;;;;;7.20;3.00;;;21.10;39.20;;;;;;5072615;28;20504;-44
2023/05/13 11:56:18;;;;;;;7.50;3.17;;;21.00;38.70;;;;;;5072436;28;20449;-44
2023/05/13 11:58:45;;;;;;;4.87;2.40;;;21.10;39.10;;;;;;5072042;28;20439;-44
2023/05/13 12:01:14;;;;;;;4.43;2.50;;;20.70;38.60;;;;;;5072645;28;20473;-43
2023/05/13 12:03:41;;;;;;;5.60;3.63;;;21.20;39.20;;;;;;5072051;28;20501;-44
2023/05/13 12:06:09;;;;;;;4.03;3.03;;;21.20;39.00;;;;;;5054617;28;20475;-43
2023/05/13 12:08:43;;;;;;;3.43;2.50;;;21.20;38.80;;;;;;5071883;28;20433;-45
2023/05/13 12:11:11;;;;;;;4.23;2.57;;;21.30;38.60;;;;;;5072521;28;20436;-44
2023/05/13 12:13:40;;;;;;;5.60;3.20;;;21.10;38.40;;;;;;5072181;28;20427;-43
2023/05/13 12:16:07;;;;;;;3.37;2.87;;;21.40;39.00;;;;;;5072205;28;20823;-44
2023/05/13 12:18:35;;;;;;;5.43;2.70;;;21.50;38.90;;;;;;5072217;28;20532;-44
2023/05/13 12:21:14;;;;;;;4.50;3.20;;;21.60;38.90;;;;;;5072389;28;20484;-43
2023/05/13 12:23:42;;;;;;;8.70;3.13;;;21.70;38.10;;;;;;5072878;28;20440;-43
2023/05/13 12:26:09;;;;;;;5.40;2.50;;;21.80;37.20;;;;;;5072530;28;20472;-45
2023/05/13 12:28:36;;;;;;;5.47;2.23;;;22.00;37.10;;;;;;5072123;28;20459;-43
2023/05/13 12:31:04;;;;;;;6.37;2.77;;;21.90;37.40;;;;;;5072381;28;20433;-44
2023/05/13 12:33:32;;;;;;;7.83;2.70;;;22.00;37.50;;;;;;5072224;28;20491;-44
2023/05/13 12:36:18;;;;;;;6.97;3.20;;;21.90;37.40;;;;;;5072329;28;20464;-43
2023/05/13 12:39:01;;;;;;;6.60;2.80;;;22.00;37.70;;;;;;5071778;28;20480;-43
2023/05/13 12:41:29;;;;;;;10.63;3.57;;;22.00;37.90;;;;;;5072229;28;20488;-44
2023/05/13 12:43:58;;;;;;;6.00;3.47;;;22.20;38.00;;;;;;5072045;28;20546;-44
2023/05/13 12:46:24;;;;;;;7.70;2.80;;;22.30;38.30;;;;;;5072126;28;21008;-44
2023/05/13 12:48:54;;;;;;;14.30;3.23;;;22.20;38.20;;;;;;5071794;28;20453;-44
2023/05/13 12:51:21;;;;;;;5.77;2.57;;;22.50;38.40;;;;;;5073689;28;20525;-43